createdAt,value
2018-07-03T00:01:27.686Z,17.40
2018-07-03T00:03:55.939Z,17.40
2018-07-03T00:06:24.208Z,17.40
2018-07-03T00:08:52.520Z,17.40
2018-07-03T00:11:21.038Z,17.30
2018-07-03T00:13:49.406Z,17.30
2018-07-03T00:16:22.903Z,17.20
2018-07-03T00:18:51.155Z,17.20
2018-07-03T00:21:19.440Z,17.20
2018-07-03T00:23:51.441Z,17.20
2018-07-03T00:26:19.700Z,17.20
2018-07-03T00:28:47.962Z,17.10
2018-07-03T00:31:16.256Z,17.10
2018-07-03T00:33:44.512Z,17.10
2018-07-03T00:36:12.817Z,17.10
2018-07-03T00:38:41.095Z,17.10
2018-07-03T00:41:09.973Z,17.10
2018-07-03T00:43:38.492Z,17.10
2018-07-03T00:46:07.114Z,17.10
2018-07-03T00:48:35.409Z,17.00
2018-07-03T00:51:04.032Z,17.00
2018-07-03T00:53:32.317Z,17.00
2018-07-03T00:56:00.597Z,17.00
2018-07-03T00:58:28.861Z,16.90
2018-07-03T01:00:57.191Z,16.90
2018-07-03T01:03:25.446Z,16.90
2018-07-03T01:05:53.725Z,16.90
2018-07-03T01:08:21.959Z,16.90
2018-07-03T01:10:50.559Z,16.80
2018-07-03T01:13:18.855Z,16.80
2018-07-03T01:15:47.463Z,16.80
2018-07-03T01:18:15.732Z,16.90
2018-07-03T01:20:44.000Z,16.90
2018-07-03T01:23:12.282Z,16.80
2018-07-03T01:25:40.577Z,16.80
2018-07-03T01:28:08.863Z,16.80
2018-07-03T01:30:37.142Z,16.80
2018-07-03T01:33:05.615Z,16.80
2018-07-03T01:35:33.906Z,16.70
2018-07-03T01:38:02.171Z,16.70
2018-07-03T01:40:30.669Z,16.70
2018-07-03T01:42:59.252Z,16.70
2018-07-03T01:45:27.865Z,16.60
2018-07-03T01:47:56.102Z,16.60
2018-07-03T01:50:24.429Z,16.60
2018-07-03T01:52:52.662Z,16.60
2018-07-03T01:55:20.914Z,16.50
2018-07-03T01:57:49.154Z,16.50
2018-07-03T02:00:17.426Z,16.50
2018-07-03T02:02:45.705Z,16.50
2018-07-03T02:05:14.019Z,16.40
2018-07-03T02:07:42.271Z,16.50
2018-07-03T02:10:10.519Z,16.50
2018-07-03T02:12:39.578Z,16.50
2018-07-03T02:17:36.221Z,16.40
2018-07-03T02:20:04.814Z,16.40
2018-07-03T02:22:33.072Z,16.40
2018-07-03T02:25:01.455Z,16.40
2018-07-03T02:27:29.721Z,16.40
2018-07-03T02:29:57.990Z,16.30
2018-07-03T02:32:26.234Z,16.30
2018-07-03T02:34:54.508Z,16.40
2018-07-03T02:37:22.743Z,16.30
2018-07-03T02:39:51.050Z,16.30
2018-07-03T02:42:19.337Z,16.30
2018-07-03T02:44:47.623Z,16.30
2018-07-03T02:47:15.892Z,16.30
2018-07-03T02:49:44.178Z,16.30
2018-07-03T02:52:12.440Z,16.30
2018-07-03T02:54:40.717Z,16.30
2018-07-03T02:57:08.950Z,16.30
2018-07-03T03:02:05.642Z,16.20
2018-07-03T03:04:33.943Z,16.20
2018-07-03T03:09:30.842Z,16.20
2018-07-03T03:11:59.096Z,16.20
2018-07-03T03:14:27.359Z,16.20
2018-07-03T03:16:55.598Z,16.30
2018-07-03T03:19:23.884Z,16.20
2018-07-03T03:21:52.155Z,16.20
2018-07-03T03:24:20.431Z,16.20
2018-07-03T03:26:48.710Z,16.20
2018-07-03T03:29:16.971Z,16.20
2018-07-03T03:31:45.412Z,16.20
2018-07-03T03:34:13.690Z,16.20
2018-07-03T03:36:41.929Z,16.20
2018-07-03T03:39:10.199Z,16.20
2018-07-03T03:41:38.792Z,16.20
2018-07-03T03:44:07.080Z,16.20
2018-07-03T03:46:35.360Z,16.20
2018-07-03T03:49:03.650Z,16.20
2018-07-03T03:51:32.246Z,16.20
2018-07-03T03:54:00.522Z,16.20
2018-07-03T03:56:28.779Z,16.20
2018-07-03T03:58:57.410Z,16.20
2018-07-03T04:01:26.020Z,16.20
2018-07-03T04:03:54.284Z,16.20
2018-07-03T04:06:22.550Z,16.20
2018-07-03T04:08:50.833Z,16.20
2018-07-03T04:11:19.098Z,16.20
2018-07-03T04:13:47.379Z,16.30
2018-07-03T04:16:16.208Z,16.30
2018-07-03T04:18:44.711Z,16.30
2018-07-03T04:21:12.943Z,16.40
2018-07-03T04:23:41.218Z,16.40
2018-07-03T04:26:09.482Z,16.40
2018-07-03T04:28:37.778Z,16.40
2018-07-03T04:31:07.136Z,16.40
2018-07-03T04:33:35.763Z,16.40
2018-07-03T04:36:04.015Z,16.50
2018-07-03T04:38:32.291Z,16.50
2018-07-03T04:41:00.560Z,16.50
2018-07-03T04:43:28.850Z,16.60
2018-07-03T04:45:57.099Z,16.60
2018-07-03T04:48:25.330Z,16.60
2018-07-03T04:50:53.603Z,16.70
2018-07-03T04:53:21.890Z,16.60
2018-07-03T04:55:50.315Z,16.70
2018-07-03T04:58:18.828Z,16.70
2018-07-03T05:00:47.439Z,16.80
2018-07-03T05:03:16.038Z,16.80
2018-07-03T05:05:44.336Z,16.80
2018-07-03T05:08:12.962Z,16.90
2018-07-03T05:10:41.234Z,17.00
2018-07-03T05:13:09.556Z,17.00
2018-07-03T05:15:37.823Z,17.10
2018-07-03T05:18:06.082Z,17.10
2018-07-03T05:20:34.568Z,17.20
2018-07-03T05:23:02.847Z,17.20
2018-07-03T05:25:31.119Z,17.30
2018-07-03T05:27:59.392Z,17.40
2018-07-03T05:30:27.689Z,17.50
2018-07-03T05:32:56.295Z,17.60
2018-07-03T05:35:24.576Z,17.70
2018-07-03T05:37:53.023Z,17.90
2018-07-03T05:40:21.335Z,18.00
2018-07-03T05:42:50.169Z,18.10
2018-07-03T05:45:18.600Z,18.20
2018-07-03T05:47:46.866Z,18.30
2018-07-03T05:50:15.152Z,18.50
2018-07-03T05:52:43.491Z,18.70
2018-07-03T05:55:11.759Z,18.90
2018-07-03T05:57:40.025Z,19.10
2018-07-03T06:00:08.429Z,19.20
2018-07-03T06:02:36.780Z,19.40
2018-07-03T06:05:05.410Z,19.60
2018-07-03T06:07:34.272Z,19.80
2018-07-03T06:10:03.304Z,20.00
2018-07-03T06:12:31.588Z,20.20
2018-07-03T06:15:00.455Z,20.30
2018-07-03T06:17:29.704Z,20.60
2018-07-03T06:19:58.562Z,20.80
2018-07-03T06:22:27.875Z,21.00
2018-07-03T06:24:56.673Z,21.20
2018-07-03T06:29:59.951Z,21.50
2018-07-03T06:32:29.057Z,21.70
2018-07-03T06:34:57.920Z,21.80
2018-07-03T06:37:26.776Z,21.90
2018-07-03T06:39:55.820Z,22.00
2018-07-03T06:42:24.821Z,22.10
2018-07-03T06:44:53.688Z,22.30
2018-07-03T06:47:22.751Z,22.50
2018-07-03T06:52:32.067Z,22.80
2018-07-03T06:55:00.960Z,22.60
2018-07-03T06:57:29.883Z,22.80
2018-07-03T07:00:01.943Z,23.00
2018-07-03T07:02:43.233Z,23.10
2018-07-03T07:05:11.898Z,23.30
2018-07-03T07:07:40.944Z,23.40
2018-07-03T07:10:09.870Z,23.60
2018-07-03T07:12:38.662Z,23.70
2018-07-03T07:15:08.180Z,23.80
2018-07-03T07:17:37.177Z,23.80
2018-07-03T07:22:35.279Z,23.70
2018-07-03T07:27:32.853Z,23.90
2018-07-03T07:30:01.674Z,23.90
2018-07-03T07:32:30.502Z,23.90
2018-07-03T07:34:59.303Z,24.00
2018-07-03T07:37:28.354Z,24.10
2018-07-03T07:40:06.511Z,24.10
2018-07-03T07:42:35.394Z,24.20
2018-07-03T07:45:04.684Z,24.30
2018-07-03T07:47:33.855Z,24.40
2018-07-03T07:50:02.886Z,24.40
2018-07-03T07:52:31.755Z,24.30
2018-07-03T07:55:00.569Z,24.30
2018-07-03T07:57:29.920Z,24.40
2018-07-03T07:59:58.739Z,24.50
2018-07-03T08:02:27.588Z,24.60
2018-07-03T08:04:56.095Z,24.70
2018-07-03T08:07:24.946Z,24.70
2018-07-03T08:09:53.769Z,24.70
2018-07-03T08:12:22.899Z,24.60
2018-07-03T08:14:51.726Z,24.70
2018-07-03T08:17:20.537Z,24.70
2018-07-03T08:19:49.488Z,24.70
2018-07-03T08:22:18.326Z,24.70
2018-07-03T08:24:47.143Z,24.70
2018-07-03T08:27:15.937Z,24.60
2018-07-03T08:29:44.875Z,24.60
2018-07-03T08:32:13.759Z,24.60
2018-07-03T08:34:42.693Z,24.60
2018-07-03T08:37:11.645Z,24.70
2018-07-03T08:39:40.451Z,24.70
2018-07-03T08:42:09.607Z,24.70
2018-07-03T08:44:38.952Z,24.70
2018-07-03T08:49:36.562Z,24.90
2018-07-03T08:52:05.509Z,24.90
2018-07-03T08:54:34.333Z,24.80
2018-07-03T08:57:04.139Z,24.80
2018-07-03T08:59:33.285Z,24.80
2018-07-03T09:02:02.533Z,24.80
2018-07-03T09:04:31.820Z,24.80
2018-07-03T09:07:00.669Z,24.70
2018-07-03T09:09:29.509Z,24.70
2018-07-03T09:11:58.498Z,24.70
2018-07-03T09:14:27.307Z,24.60
2018-07-03T09:16:56.113Z,24.60
2018-07-03T09:19:24.968Z,24.60
2018-07-03T09:21:53.778Z,24.70
2018-07-03T09:24:22.816Z,24.60
2018-07-03T09:29:21.629Z,24.60
2018-07-03T09:31:50.420Z,24.70
2018-07-03T09:34:19.270Z,24.90
2018-07-03T09:36:48.067Z,24.90
2018-07-03T09:39:16.872Z,24.90
2018-07-03T09:41:45.646Z,24.90
2018-07-03T09:44:14.474Z,24.90
2018-07-03T09:46:43.683Z,25.00
2018-07-03T09:49:12.655Z,25.00
2018-07-03T09:51:41.751Z,24.90
2018-07-03T09:54:10.553Z,25.00
2018-07-03T09:56:39.349Z,25.00
2018-07-03T09:59:08.184Z,25.10
2018-07-03T10:01:36.972Z,25.10
2018-07-03T10:04:05.506Z,25.10
2018-07-03T10:06:34.638Z,25.10
2018-07-03T10:11:32.484Z,25.10
2018-07-03T10:14:01.290Z,25.10
2018-07-03T10:16:30.279Z,25.20
2018-07-03T10:18:59.148Z,25.30
2018-07-03T10:21:28.122Z,25.40
2018-07-03T10:23:56.931Z,25.10
2018-07-03T10:26:25.775Z,25.30
2018-07-03T10:28:54.658Z,25.40
2018-07-03T10:31:23.517Z,25.50
2018-07-03T10:33:52.546Z,25.60
2018-07-03T10:36:21.366Z,25.60
2018-07-03T10:38:50.173Z,25.50
2018-07-03T10:41:19.016Z,25.60
2018-07-03T10:43:47.836Z,25.60
2018-07-03T10:46:16.654Z,25.70
2018-07-03T10:51:14.228Z,25.80
2018-07-03T10:53:43.062Z,25.70
2018-07-03T10:56:11.880Z,25.70
2018-07-03T10:58:40.998Z,25.80
2018-07-03T11:01:09.810Z,25.70
2018-07-03T11:03:38.041Z,25.70
2018-07-03T11:06:06.888Z,25.70
2018-07-03T11:08:35.685Z,25.90
2018-07-03T11:11:04.507Z,26.00
2018-07-03T11:13:33.349Z,26.00
2018-07-03T11:16:02.135Z,26.00
2018-07-03T11:18:30.966Z,26.00
2018-07-03T11:20:59.781Z,25.90
2018-07-03T11:23:28.578Z,25.90
2018-07-03T11:25:57.390Z,26.10
2018-07-03T11:28:26.200Z,26.20
2018-07-03T11:30:55.044Z,26.30
2018-07-03T11:33:23.914Z,26.40
2018-07-03T11:35:52.742Z,26.50
2018-07-03T11:38:21.565Z,26.40
2018-07-03T11:40:50.424Z,26.40
2018-07-03T11:43:19.345Z,26.50
2018-07-03T11:45:48.291Z,26.50
2018-07-03T11:48:17.086Z,26.30
2018-07-03T11:50:45.920Z,26.50
2018-07-03T11:53:14.738Z,26.50
2018-07-03T11:55:43.874Z,26.40
2018-07-03T11:58:12.893Z,26.40
2018-07-03T12:00:41.707Z,26.60
2018-07-03T12:03:10.537Z,26.80
2018-07-03T12:05:40.199Z,27.00
2018-07-03T12:08:09.074Z,26.90
2018-07-03T12:10:37.898Z,26.80
2018-07-03T12:13:06.990Z,26.80
2018-07-03T12:15:35.958Z,26.90
2018-07-03T12:18:05.568Z,27.10
2018-07-03T12:20:34.745Z,27.00
2018-07-03T12:23:03.595Z,27.10
2018-07-03T12:25:32.758Z,27.20
2018-07-03T12:28:01.540Z,27.20
2018-07-03T12:30:30.647Z,27.30
2018-07-03T12:32:59.471Z,27.40
2018-07-03T12:35:28.299Z,27.50
2018-07-03T12:37:57.161Z,27.50
2018-07-03T12:40:25.990Z,27.70
2018-07-03T12:42:54.837Z,27.70
2018-07-03T12:45:23.717Z,27.80
2018-07-03T12:47:52.907Z,27.90
2018-07-03T12:50:21.998Z,27.80
2018-07-03T12:52:50.800Z,28.00
2018-07-03T12:55:19.652Z,28.00
2018-07-03T12:57:48.619Z,28.00
2018-07-03T13:00:17.441Z,28.10
2018-07-03T13:02:46.296Z,28.20
2018-07-03T13:05:14.865Z,28.30
2018-07-03T13:07:43.682Z,28.30
2018-07-03T13:10:12.701Z,28.50
2018-07-03T13:12:41.549Z,28.50
2018-07-03T13:15:10.356Z,28.30
2018-07-03T13:17:39.355Z,28.20
2018-07-03T13:20:08.198Z,28.20
2018-07-03T13:22:37.025Z,28.20
2018-07-03T13:25:08.479Z,28.20
2018-07-03T13:30:28.410Z,28.40
2018-07-03T13:32:57.772Z,28.40
2018-07-03T13:35:26.956Z,28.40
2018-07-03T13:37:55.800Z,28.60
2018-07-03T13:42:54.249Z,28.50
2018-07-03T13:45:23.190Z,28.40
2018-07-03T13:47:52.191Z,28.70
2018-07-03T13:50:21.018Z,28.70
2018-07-03T13:52:49.828Z,28.80
2018-07-03T13:55:18.743Z,28.90
2018-07-03T13:57:47.594Z,29.00
2018-07-03T14:00:16.718Z,29.10
2018-07-03T14:02:45.558Z,29.10
2018-07-03T14:05:28.655Z,29.10
2018-07-03T14:08:01.378Z,29.10
2018-07-03T14:10:30.202Z,29.20
2018-07-03T14:12:59.200Z,29.30
2018-07-03T14:15:28.141Z,29.30
2018-07-03T19:07:51.099Z,22.10
2018-07-03T19:10:20.481Z,21.90
2018-07-03T19:12:49.330Z,21.90
2018-07-03T19:15:18.371Z,21.70
2018-07-03T19:17:47.269Z,21.60
2018-07-03T19:20:16.218Z,21.60
2018-07-03T19:22:45.368Z,21.50
2018-07-03T19:25:14.266Z,21.40
2018-07-03T19:27:44.163Z,21.30
2018-07-03T19:30:13.072Z,21.20
2018-07-03T19:32:42.401Z,21.00
2018-07-03T19:35:12.241Z,20.80
2018-07-03T19:37:41.112Z,20.80
2018-07-03T19:40:10.016Z,20.70
2018-07-03T19:42:51.892Z,20.50
2018-07-03T19:45:21.063Z,20.40
2018-07-03T19:47:49.989Z,20.30
2018-07-03T19:50:19.020Z,20.20
2018-07-03T19:52:47.543Z,20.10
2018-07-03T19:55:16.441Z,20.00
2018-07-03T19:57:45.575Z,19.90
2018-07-03T20:00:14.490Z,19.80
2018-07-03T20:02:43.195Z,19.60
2018-07-03T20:05:12.008Z,19.50
2018-07-03T20:10:15.957Z,19.20
2018-07-03T20:12:44.259Z,19.10
2018-07-03T20:15:12.575Z,19.00
2018-07-03T20:17:40.966Z,18.80
2018-07-03T20:20:08.913Z,18.80
2018-07-03T20:22:37.273Z,18.60
2018-07-03T20:25:05.589Z,18.60
2018-07-03T20:27:34.457Z,18.50
2018-07-03T20:30:02.810Z,18.50
2018-07-03T20:32:31.154Z,18.40
2018-07-03T20:34:59.487Z,18.30
2018-07-03T20:37:27.864Z,18.20
2018-07-03T20:39:56.306Z,18.20
2018-07-03T20:42:24.672Z,18.10
2018-07-03T20:47:21.620Z,18.00
2018-07-03T20:49:49.937Z,18.00
2018-07-03T20:52:18.202Z,17.90
2018-07-03T20:54:46.513Z,17.80
2018-07-03T20:57:14.858Z,17.80
2018-07-03T20:59:43.473Z,17.70
2018-07-03T21:02:11.903Z,17.70
2018-07-03T21:04:40.186Z,17.60
2018-07-03T21:07:08.918Z,17.50
2018-07-03T21:09:37.213Z,17.50
2018-07-03T21:12:05.515Z,17.40
2018-07-03T21:14:33.798Z,17.30
2018-07-03T21:17:02.124Z,17.30
2018-07-03T21:19:30.440Z,17.30
2018-07-03T21:21:58.722Z,17.30
2018-07-03T21:24:27.152Z,17.20
2018-07-03T21:26:55.552Z,17.10
2018-07-03T21:29:23.863Z,17.10
2018-07-03T21:31:52.212Z,17.10
2018-07-03T21:34:20.596Z,17.10
2018-07-03T21:36:48.891Z,17.00
2018-07-03T21:39:17.280Z,17.00
2018-07-03T21:41:45.667Z,17.00
2018-07-03T21:44:13.993Z,17.00
2018-07-03T21:46:42.301Z,16.90
2018-07-03T21:49:10.779Z,16.90
2018-07-03T21:51:39.076Z,16.90
2018-07-03T21:54:07.445Z,16.90
2018-07-03T21:59:03.852Z,16.80
2018-07-03T22:01:32.179Z,16.80
2018-07-03T22:04:00.494Z,16.80
2018-07-03T22:06:28.861Z,16.80
2018-07-03T22:08:57.369Z,16.70
2018-07-03T22:11:25.670Z,16.70
2018-07-03T22:13:53.981Z,16.80
2018-07-03T22:16:22.361Z,16.70
2018-07-03T22:18:50.818Z,16.70
2018-07-03T22:21:19.135Z,16.70
2018-07-03T22:23:47.409Z,16.70
2018-07-03T22:26:15.691Z,16.70
2018-07-03T22:28:43.972Z,16.60
2018-07-03T22:31:12.251Z,16.60
2018-07-03T22:33:40.542Z,16.60
2018-07-03T22:36:08.830Z,16.60
2018-07-03T22:38:37.101Z,16.60
2018-07-03T22:41:05.588Z,16.60
2018-07-03T22:43:33.849Z,16.60
2018-07-03T22:46:02.122Z,16.60
2018-07-03T22:48:30.449Z,16.60
2018-07-03T22:50:58.746Z,16.50
2018-07-03T22:53:27.006Z,16.50
2018-07-03T22:55:55.276Z,16.50
2018-07-03T22:58:23.568Z,16.50
2018-07-03T23:00:52.037Z,16.50
2018-07-03T23:03:20.339Z,16.50
2018-07-03T23:05:48.592Z,16.50
2018-07-03T23:08:16.862Z,16.50
2018-07-03T23:10:45.110Z,16.40
2018-07-03T23:13:13.651Z,16.40
2018-07-03T23:15:41.913Z,16.40
2018-07-03T23:18:10.179Z,16.40
2018-07-03T23:20:38.470Z,16.40
2018-07-03T23:23:06.914Z,16.40
2018-07-03T23:25:35.171Z,16.30
2018-07-03T23:28:03.477Z,16.30
2018-07-03T23:30:31.737Z,16.30
2018-07-03T23:32:59.999Z,16.30
2018-07-03T23:35:28.276Z,16.30
2018-07-03T23:37:56.567Z,16.30
2018-07-03T23:40:24.857Z,16.30
2018-07-03T23:42:53.137Z,16.30
2018-07-03T23:45:21.762Z,16.20
2018-07-03T23:48:01.384Z,16.20
2018-07-03T23:50:41.029Z,16.20
2018-07-03T23:53:20.650Z,16.20
2018-07-03T23:56:00.314Z,16.20
2018-07-03T23:58:40.042Z,16.20
